createdAt,value
2022-07-28T00:01:41.623Z,22.83
2022-07-28T00:03:48.947Z,15.03
2022-07-28T00:05:52.842Z,15.60
2022-07-28T00:07:56.577Z,16.57
2022-07-28T00:10:00.909Z,15.70
2022-07-28T00:12:05.188Z,15.37
2022-07-28T00:14:08.691Z,17.00
2022-07-28T00:16:12.301Z,16.47
2022-07-28T00:18:16.079Z,14.90
2022-07-28T00:20:21.424Z,16.87
2022-07-28T00:22:25.096Z,15.10
2022-07-28T00:24:28.619Z,17.93
2022-07-28T00:26:32.733Z,17.20
2022-07-28T00:28:36.558Z,16.80
2022-07-28T00:30:40.057Z,17.80
2022-07-28T00:32:44.282Z,15.07
2022-07-28T00:34:47.969Z,17.53
2022-07-28T00:36:52.829Z,17.60
2022-07-28T00:38:57.825Z,17.33
2022-07-28T00:41:14.095Z,16.80
2022-07-28T00:43:17.761Z,19.10
2022-07-28T00:45:21.337Z,17.67
2022-07-28T00:47:25.137Z,18.27
2022-07-28T00:49:28.935Z,18.37
2022-07-28T00:51:32.617Z,16.73
2022-07-28T00:53:37.927Z,19.83
2022-07-28T00:56:05.389Z,18.97
2022-07-28T00:58:05.461Z,16.87
2022-07-28T01:00:09.738Z,20.93
2022-07-28T01:02:13.449Z,17.10
2022-07-28T01:04:18.354Z,18.43
2022-07-28T01:06:42.780Z,17.70
2022-07-28T01:08:55.598Z,16.97
2022-07-28T01:11:03.666Z,22.63
2022-07-28T01:13:12.720Z,18.10
2022-07-28T01:15:20.927Z,17.70
2022-07-28T01:17:28.306Z,19.67
2022-07-28T01:19:37.708Z,16.23
2022-07-28T01:21:43.016Z,20.67
2022-07-28T01:24:00.640Z,20.30
2022-07-28T01:26:13.823Z,16.90
2022-07-28T01:28:23.482Z,16.53
2022-07-28T01:30:37.785Z,19.03
2022-07-28T01:32:43.332Z,17.93
2022-07-28T01:34:51.167Z,17.80
2022-07-28T01:36:58.995Z,18.50
2022-07-28T01:39:03.323Z,20.90
2022-07-28T01:41:07.936Z,16.70
2022-07-28T01:43:13.682Z,19.00
2022-07-28T01:45:18.173Z,29.13
2022-07-28T01:47:24.020Z,17.40
2022-07-28T01:49:28.378Z,24.30
2022-07-28T01:51:32.825Z,21.23
2022-07-28T01:53:38.366Z,18.23
2022-07-28T01:55:44.527Z,20.57
2022-07-28T01:57:48.726Z,17.50
2022-07-28T01:59:52.984Z,19.57
2022-07-28T02:01:56.633Z,18.70
2022-07-28T02:04:02.224Z,16.10
2022-07-28T02:06:08.326Z,17.60
2022-07-28T02:08:12.513Z,18.37
2022-07-28T02:10:17.333Z,15.77
2022-07-28T02:12:21.275Z,19.50
2022-07-28T02:14:26.172Z,23.97
2022-07-28T02:16:31.181Z,19.67
2022-07-28T02:18:35.732Z,17.17
2022-07-28T02:20:41.342Z,17.40
2022-07-28T02:22:51.389Z,15.53
2022-07-28T02:24:56.890Z,17.13
2022-07-28T02:27:02.152Z,16.53
2022-07-28T02:29:07.388Z,15.10
2022-07-28T02:31:13.931Z,15.67
2022-07-28T02:33:29.573Z,13.97
2022-07-28T02:35:49.000Z,14.43
2022-07-28T02:37:56.245Z,13.17
2022-07-28T02:40:01.092Z,15.43
2022-07-28T02:42:07.293Z,14.70
2022-07-28T02:44:14.830Z,14.47
2022-07-28T02:46:21.122Z,15.43
2022-07-28T02:48:26.508Z,14.77
2022-07-28T02:50:31.224Z,13.90
2022-07-28T02:52:36.871Z,12.90
2022-07-28T02:54:41.891Z,14.73
2022-07-28T02:56:53.705Z,14.33
2022-07-28T02:58:58.303Z,13.43
2022-07-28T03:01:02.290Z,13.07
2022-07-28T03:03:06.323Z,13.47
2022-07-28T03:05:11.247Z,12.43
2022-07-28T03:07:15.401Z,14.60
2022-07-28T03:09:20.499Z,13.67
2022-07-28T03:11:24.030Z,13.47
2022-07-28T03:13:27.829Z,14.70
2022-07-28T03:15:32.098Z,13.93
2022-07-28T03:17:35.701Z,11.47
2022-07-28T03:19:39.270Z,14.73
2022-07-28T03:21:42.759Z,12.23
2022-07-28T03:23:47.995Z,13.90
2022-07-28T03:25:53.859Z,12.87
2022-07-28T03:27:59.571Z,13.20
2022-07-28T03:30:04.823Z,12.27
2022-07-28T03:32:09.276Z,13.23
2022-07-28T03:34:13.026Z,14.63
2022-07-28T03:36:19.045Z,14.03
2022-07-28T03:38:24.219Z,13.80
2022-07-28T03:40:29.664Z,13.90
2022-07-28T03:42:35.473Z,13.33
2022-07-28T03:44:40.212Z,13.90
2022-07-28T03:46:45.751Z,16.03
2022-07-28T03:48:49.906Z,12.93
2022-07-28T03:50:53.475Z,12.30
2022-07-28T03:52:57.548Z,14.67
2022-07-28T03:55:01.142Z,11.80
2022-07-28T03:57:04.682Z,11.80
2022-07-28T03:59:11.271Z,16.60
2022-07-28T04:01:14.888Z,13.90
2022-07-28T04:03:35.926Z,12.10
2022-07-28T04:05:42.610Z,10.67
2022-07-28T04:07:46.996Z,13.17
2022-07-28T04:09:51.050Z,13.73
2022-07-28T04:11:54.575Z,10.43
2022-07-28T04:13:58.175Z,11.27
2022-07-28T04:16:03.122Z,12.27
2022-07-28T04:18:07.603Z,11.70
2022-07-28T04:20:11.837Z,12.07
2022-07-28T04:22:15.346Z,14.30
2022-07-28T04:24:19.619Z,10.53
2022-07-28T04:26:23.365Z,10.87
2022-07-28T04:28:27.011Z,12.37
2022-07-28T04:30:30.924Z,12.13
2022-07-28T04:32:35.809Z,11.30
2022-07-28T04:34:39.712Z,12.30
2022-07-28T04:36:43.621Z,9.77
2022-07-28T04:38:47.105Z,12.47
2022-07-28T04:40:51.752Z,11.37
2022-07-28T04:42:55.386Z,10.77
2022-07-28T04:44:59.574Z,11.50
2022-07-28T04:47:03.139Z,10.60
2022-07-28T04:49:11.439Z,10.20
2022-07-28T04:51:15.081Z,10.53
2022-07-28T04:53:19.305Z,11.07
2022-07-28T04:55:22.836Z,9.60
2022-07-28T04:57:28.121Z,10.20
2022-07-28T04:59:31.697Z,10.60
2022-07-28T05:01:39.159Z,10.33
2022-07-28T05:03:42.791Z,9.23
2022-07-28T05:05:54.376Z,13.63
2022-07-28T05:07:58.727Z,10.60
2022-07-28T05:10:02.305Z,12.27
2022-07-28T05:12:06.655Z,9.67
2022-07-28T05:14:12.447Z,9.60
2022-07-28T05:16:16.288Z,10.17
2022-07-28T05:18:20.029Z,9.13
2022-07-28T05:20:23.642Z,10.20
2022-07-28T05:22:28.883Z,10.97
2022-07-28T05:24:32.494Z,9.73
2022-07-28T05:26:36.043Z,8.60
2022-07-28T05:28:40.174Z,8.93
2022-07-28T05:30:43.732Z,8.70
2022-07-28T05:32:48.184Z,9.50
2022-07-28T05:34:51.740Z,9.97
2022-07-28T05:36:55.291Z,10.70
2022-07-28T05:39:00.277Z,9.90
2022-07-28T05:41:03.839Z,9.33
2022-07-28T05:43:07.453Z,17.50
2022-07-28T05:45:15.669Z,10.53
2022-07-28T05:47:20.708Z,10.80
2022-07-28T05:49:24.442Z,8.47
2022-07-28T05:51:28.117Z,8.70
2022-07-28T05:53:31.786Z,11.87
2022-07-28T05:55:36.768Z,11.33
2022-07-28T05:58:00.337Z,10.93
2022-07-28T06:00:04.658Z,9.47
2022-07-28T06:02:08.305Z,8.97
2022-07-28T06:04:28.334Z,8.80
2022-07-28T06:06:32.461Z,9.40
2022-07-28T06:08:36.243Z,8.20
2022-07-28T06:10:59.289Z,10.10
2022-07-28T06:13:05.564Z,8.20
2022-07-28T06:15:10.229Z,8.30
2022-07-28T06:17:15.014Z,12.73
2022-07-28T06:19:18.858Z,8.17
2022-07-28T06:21:24.289Z,11.03
2022-07-28T06:23:28.112Z,10.20
2022-07-28T06:25:32.232Z,9.47
2022-07-28T06:27:37.090Z,9.17
2022-07-28T06:29:40.634Z,8.00
2022-07-28T06:31:44.377Z,6.77
2022-07-28T06:33:47.977Z,7.80
2022-07-28T06:35:51.731Z,8.17
2022-07-28T06:37:55.267Z,7.40
2022-07-28T06:39:58.956Z,7.10
2022-07-28T06:42:02.457Z,6.30
2022-07-28T06:44:08.486Z,7.80
2022-07-28T06:46:14.513Z,8.50
2022-07-28T06:48:18.993Z,7.00
2022-07-28T06:50:25.227Z,6.57
2022-07-28T06:52:30.964Z,8.53
2022-07-28T06:54:34.488Z,6.03
2022-07-28T06:56:38.033Z,7.20
2022-07-28T06:58:41.794Z,7.33
2022-07-28T07:00:50.932Z,7.60
2022-07-28T07:02:54.546Z,8.20
2022-07-28T07:04:58.044Z,8.70
2022-07-28T07:07:01.854Z,8.50
2022-07-28T07:09:06.168Z,7.93
2022-07-28T07:11:09.966Z,7.20
2022-07-28T07:13:13.755Z,6.60
2022-07-28T07:15:17.517Z,7.43
2022-07-28T07:17:22.459Z,6.83
2022-07-28T07:19:25.976Z,6.80
2022-07-28T07:21:29.854Z,6.03
2022-07-28T07:23:33.498Z,6.30
2022-07-28T07:25:37.167Z,6.67
2022-07-28T07:27:40.953Z,6.67
2022-07-28T07:29:44.485Z,7.83
2022-07-28T07:31:48.042Z,5.73
2022-07-28T07:33:57.961Z,8.17
2022-07-28T07:36:01.474Z,6.00
2022-07-28T07:38:05.099Z,6.97
2022-07-28T07:40:09.376Z,7.63
2022-07-28T07:42:13.267Z,6.10
2022-07-28T07:44:17.394Z,6.43
2022-07-28T07:46:21.432Z,9.20
2022-07-28T07:48:25.340Z,5.37
2022-07-28T07:50:30.799Z,6.63
2022-07-28T07:52:34.680Z,9.13
2022-07-28T07:54:38.227Z,5.63
2022-07-28T07:56:42.193Z,6.00
2022-07-28T07:58:45.808Z,5.83
2022-07-28T08:00:49.310Z,5.73
2022-07-28T08:02:53.148Z,6.10
2022-07-28T08:04:57.548Z,9.80
2022-07-28T08:07:02.490Z,6.90
2022-07-28T08:09:06.889Z,6.70
2022-07-28T08:11:11.315Z,10.23
2022-07-28T08:13:14.859Z,9.03
2022-07-28T08:15:18.508Z,5.60
2022-07-28T08:17:25.924Z,5.67
2022-07-28T08:19:30.101Z,4.60
2022-07-28T08:21:33.824Z,4.03
2022-07-28T08:23:38.744Z,5.13
2022-07-28T08:25:44.346Z,4.20
2022-07-28T08:27:47.860Z,4.53
2022-07-28T08:29:51.621Z,4.63
2022-07-28T08:31:55.123Z,4.30
2022-07-28T08:33:58.785Z,3.87
2022-07-28T08:36:02.533Z,3.93
2022-07-28T08:38:07.017Z,4.33
2022-07-28T08:40:14.808Z,3.67
2022-07-28T08:42:22.813Z,4.73
2022-07-28T08:44:29.628Z,4.20
2022-07-28T08:46:36.757Z,8.00
2022-07-28T08:48:40.722Z,8.70
2022-07-28T08:50:45.951Z,11.63
2022-07-28T08:52:52.176Z,3.67
2022-07-28T08:54:57.714Z,4.60
2022-07-28T08:57:02.837Z,3.80
2022-07-28T08:59:06.440Z,5.73
2022-07-28T09:01:11.214Z,3.47
2022-07-28T09:03:15.065Z,3.50
2022-07-28T09:05:18.824Z,3.37
2022-07-28T09:07:22.751Z,2.90
2022-07-28T09:09:26.378Z,4.53
2022-07-28T09:11:29.947Z,3.33
2022-07-28T09:13:36.117Z,8.40
2022-07-28T09:15:42.210Z,3.43
2022-07-28T09:17:45.787Z,3.13
2022-07-28T09:19:49.409Z,3.27
2022-07-28T09:21:53.564Z,3.03
2022-07-28T09:24:00.655Z,4.17
2022-07-28T09:26:11.816Z,2.83
2022-07-28T09:28:16.417Z,3.50
2022-07-28T09:30:32.690Z,3.57
2022-07-28T09:32:36.576Z,3.43
2022-07-28T09:34:43.498Z,3.33
2022-07-28T09:36:46.967Z,3.00
2022-07-28T09:38:50.478Z,3.50
2022-07-28T09:41:00.597Z,3.63
2022-07-28T09:43:04.457Z,3.33
2022-07-28T09:45:25.483Z,3.57
2022-07-28T09:47:33.683Z,5.50
2022-07-28T09:49:44.658Z,3.10
2022-07-28T09:52:01.213Z,3.80
2022-07-28T09:54:12.719Z,3.93
2022-07-28T09:56:16.745Z,3.17
2022-07-28T09:58:20.247Z,3.00
2022-07-28T10:00:30.695Z,3.63
2022-07-28T10:02:36.627Z,3.07
2022-07-28T10:04:41.035Z,3.73
2022-07-28T10:06:44.796Z,3.13
2022-07-28T10:08:49.802Z,5.73
2022-07-28T10:11:03.762Z,3.23
2022-07-28T10:13:07.875Z,3.13
2022-07-28T10:15:31.302Z,5.23
2022-07-28T10:17:36.619Z,2.73
2022-07-28T10:19:40.793Z,2.67
2022-07-28T10:21:45.459Z,3.20
2022-07-28T10:23:49.984Z,2.97
2022-07-28T10:25:55.265Z,2.70
2022-07-28T10:28:00.284Z,4.10
2022-07-28T10:30:05.239Z,3.27
2022-07-28T10:32:09.008Z,2.93
2022-07-28T10:34:19.334Z,3.20
2022-07-28T10:36:28.759Z,2.77
2022-07-28T10:38:36.053Z,2.30
2022-07-28T10:40:42.386Z,3.07
2022-07-28T10:42:46.153Z,2.97
2022-07-28T10:44:49.973Z,4.23
2022-07-28T10:46:55.791Z,2.97
2022-07-28T10:49:00.709Z,3.27
2022-07-28T10:51:08.914Z,3.57
2022-07-28T10:53:13.963Z,3.07
2022-07-28T10:55:20.552Z,2.80
2022-07-28T10:57:25.221Z,3.67
2022-07-28T10:59:58.265Z,2.33
2022-07-28T11:02:02.334Z,3.07
2022-07-28T11:04:07.932Z,3.10
2022-07-28T11:06:27.403Z,3.40
2022-07-28T11:08:31.422Z,3.97
2022-07-28T11:10:45.349Z,2.63
2022-07-28T11:12:49.619Z,8.80
2022-07-28T11:14:53.416Z,3.07
2022-07-28T11:17:11.979Z,3.13
2022-07-28T11:19:38.022Z,5.17
2022-07-28T11:22:01.870Z,5.93
2022-07-28T11:24:06.202Z,3.23
2022-07-28T11:26:30.888Z,3.20
2022-07-28T11:28:34.836Z,3.87
2022-07-28T11:30:58.357Z,2.90
2022-07-28T11:33:02.615Z,4.00
2022-07-28T11:35:07.946Z,2.90
2022-07-28T11:37:15.007Z,4.47
2022-07-28T11:39:25.335Z,3.00
2022-07-28T11:41:31.409Z,3.60
2022-07-28T11:43:40.094Z,3.57
2022-07-28T11:45:50.400Z,3.20
2022-07-28T11:48:13.992Z,5.20
2022-07-28T11:50:19.026Z,6.17
2022-07-28T11:52:24.529Z,2.80
2022-07-28T11:54:28.125Z,3.70
2022-07-28T11:56:37.246Z,3.40
2022-07-28T11:58:41.241Z,7.90
2022-07-28T12:00:44.981Z,3.13
2022-07-28T12:02:51.171Z,5.40
2022-07-28T12:04:59.310Z,3.43
2022-07-28T12:07:04.017Z,6.43
2022-07-28T12:09:10.751Z,3.60
2022-07-28T12:11:14.501Z,3.50
2022-07-28T12:13:26.592Z,2.73
2022-07-28T12:15:30.402Z,3.13
2022-07-28T12:17:35.140Z,3.60
2022-07-28T12:19:38.838Z,3.07
2022-07-28T12:21:46.631Z,3.40
2022-07-28T12:23:51.633Z,3.47
2022-07-28T12:25:56.666Z,3.40
2022-07-28T12:28:14.807Z,4.50
2022-07-28T12:30:23.204Z,10.47
2022-07-28T12:32:32.621Z,3.70
2022-07-28T12:34:37.728Z,3.97
2022-07-28T12:36:41.157Z,3.53
2022-07-28T12:38:44.636Z,2.80
2022-07-28T12:40:48.670Z,3.97
2022-07-28T12:42:55.141Z,3.80
2022-07-28T12:45:03.054Z,3.90
2022-07-28T12:47:08.182Z,3.37
2022-07-28T12:49:21.388Z,5.50
2022-07-28T12:51:35.315Z,10.17
2022-07-28T12:53:52.174Z,4.37
2022-07-28T12:56:02.205Z,3.60
2022-07-28T12:58:07.933Z,3.70
2022-07-28T13:00:11.924Z,3.90
2022-07-28T13:02:15.823Z,3.30
2022-07-28T13:04:19.577Z,3.77
2022-07-28T13:06:23.075Z,4.07
2022-07-28T13:08:29.748Z,5.20
2022-07-28T13:10:33.420Z,4.13
2022-07-28T13:12:37.627Z,3.30
2022-07-28T13:14:43.690Z,6.10
2022-07-28T13:16:59.429Z,4.03
2022-07-28T13:19:05.822Z,3.47
2022-07-28T13:21:09.638Z,4.43
2022-07-28T13:23:13.186Z,3.60
2022-07-28T13:25:17.168Z,6.67
2022-07-28T13:27:20.716Z,5.20
2022-07-28T13:29:24.373Z,3.93
2022-07-28T13:31:29.523Z,4.83
2022-07-28T13:33:33.239Z,3.80
2022-07-28T13:35:37.239Z,3.80
2022-07-28T13:37:40.750Z,3.93
2022-07-28T13:39:44.283Z,4.30
2022-07-28T13:41:56.427Z,3.70
2022-07-28T13:44:02.229Z,3.47
2022-07-28T13:46:07.833Z,4.10
2022-07-28T13:48:13.309Z,4.83
2022-07-28T13:50:16.854Z,3.87
2022-07-28T13:52:33.168Z,6.13
2022-07-28T13:54:38.650Z,3.47
2022-07-28T13:56:43.925Z,4.00
2022-07-28T13:58:47.618Z,3.87
2022-07-28T14:00:52.213Z,6.73
2022-07-28T14:02:55.959Z,3.83
2022-07-28T14:05:01.185Z,3.30
2022-07-28T14:07:04.706Z,3.30
2022-07-28T14:09:09.580Z,3.60
2022-07-28T14:11:15.352Z,4.10
2022-07-28T14:13:19.985Z,3.90
2022-07-28T14:15:23.513Z,5.27
2022-07-28T14:17:45.526Z,5.10
2022-07-28T14:19:50.092Z,5.40
2022-07-28T14:21:55.655Z,6.10
2022-07-28T14:23:59.340Z,3.90
2022-07-28T14:26:33.093Z,4.20
2022-07-28T14:28:26.355Z,3.50
2022-07-28T14:30:30.233Z,3.57
2022-07-28T14:32:34.110Z,5.87
2022-07-28T14:34:37.739Z,4.43
2022-07-28T14:36:43.497Z,4.00
2022-07-28T14:38:55.717Z,5.50
2022-07-28T14:40:59.482Z,4.30
2022-07-28T14:43:03.036Z,5.13
2022-07-28T14:45:06.926Z,4.53
2022-07-28T14:47:10.757Z,6.03
2022-07-28T14:49:14.306Z,4.93
2022-07-28T14:51:17.893Z,7.13
2022-07-28T14:53:22.251Z,5.30
2022-07-28T14:55:27.566Z,7.63
2022-07-28T14:57:50.014Z,4.53
2022-07-28T14:59:54.593Z,4.10
2022-07-28T15:01:58.137Z,10.30
2022-07-28T15:04:01.708Z,5.80
2022-07-28T15:06:05.641Z,6.83
2022-07-28T15:08:10.342Z,4.50
2022-07-28T15:10:21.835Z,3.53
2022-07-28T15:12:27.073Z,3.70
2022-07-28T15:14:30.624Z,3.60
2022-07-28T15:16:34.257Z,3.97
2022-07-28T15:18:37.864Z,6.57
2022-07-28T15:20:42.787Z,6.43
2022-07-28T15:22:46.346Z,4.30
2022-07-28T15:24:49.914Z,3.93
2022-07-28T15:26:53.506Z,4.23
2022-07-28T15:28:59.899Z,3.60
2022-07-28T15:31:03.542Z,7.97
2022-07-28T15:33:09.059Z,5.20
2022-07-28T15:35:12.631Z,4.43
2022-07-28T15:37:16.210Z,3.93
2022-07-28T15:39:20.903Z,3.17
2022-07-28T15:41:24.425Z,4.47
2022-07-28T15:43:28.012Z,4.10
2022-07-28T15:45:33.423Z,5.13
2022-07-28T15:47:37.531Z,6.43
2022-07-28T15:49:41.652Z,8.73
2022-07-28T15:51:45.190Z,3.93
2022-07-28T15:53:52.335Z,4.70
2022-07-28T15:55:56.063Z,3.80
2022-07-28T15:58:01.832Z,5.97
2022-07-28T16:00:05.786Z,3.90
2022-07-28T16:02:11.239Z,4.43
2022-07-28T16:04:15.228Z,5.20
2022-07-28T16:06:19.195Z,6.00
2022-07-28T16:08:23.388Z,4.47
2022-07-28T16:10:27.558Z,4.40
2022-07-28T16:12:31.190Z,5.03
2022-07-28T16:14:35.455Z,7.47
2022-07-28T16:16:39.241Z,4.37
2022-07-28T16:18:45.045Z,4.33
2022-07-28T16:20:48.538Z,7.33
2022-07-28T16:22:52.355Z,7.30
2022-07-28T16:24:55.905Z,5.97
2022-07-28T16:26:59.449Z,3.90
2022-07-28T16:29:03.419Z,3.20
2022-07-28T16:31:07.184Z,5.23
2022-07-28T16:33:10.935Z,4.17
2022-07-28T16:35:16.161Z,3.97
2022-07-28T16:37:20.023Z,5.30
2022-07-28T16:39:23.583Z,8.00
2022-07-28T16:41:46.760Z,4.10
2022-07-28T16:43:51.130Z,4.10
2022-07-28T16:45:54.843Z,6.53
2022-07-28T16:47:58.866Z,4.57
2022-07-28T16:50:02.429Z,5.43
2022-07-28T16:52:07.504Z,6.00
2022-07-28T16:54:12.341Z,7.17
2022-07-28T16:56:17.932Z,5.07
2022-07-28T16:58:22.339Z,5.13
2022-07-28T17:00:26.919Z,5.23
2022-07-28T17:02:31.063Z,4.60
2022-07-28T17:04:34.720Z,5.33
2022-07-28T17:06:39.213Z,6.10
2022-07-28T17:08:44.284Z,6.57
2022-07-28T17:10:48.309Z,3.80
2022-07-28T17:12:52.463Z,4.50
2022-07-28T17:14:56.047Z,8.83
2022-07-28T17:17:00.341Z,5.73
2022-07-28T17:19:04.028Z,4.67
2022-07-28T17:21:07.521Z,4.30
2022-07-28T17:23:11.347Z,5.47
2022-07-28T17:27:44.623Z,4.90
2022-07-28T17:29:51.837Z,7.30
2022-07-28T17:31:55.479Z,5.67
2022-07-28T17:33:59.172Z,5.07
2022-07-28T17:36:02.808Z,5.50
2022-07-28T17:38:06.921Z,5.77
2022-07-28T17:40:10.928Z,6.70
2022-07-28T17:42:15.993Z,5.57
2022-07-28T17:44:19.757Z,4.90
2022-07-28T17:46:26.771Z,6.47
2022-07-28T17:48:30.448Z,6.87
2022-07-28T17:50:34.282Z,6.10
2022-07-28T17:52:37.863Z,5.33
2022-07-28T17:54:58.724Z,6.50
2022-07-28T17:57:03.184Z,6.27
2022-07-28T17:59:12.944Z,8.80
2022-07-28T18:01:16.519Z,7.40
2022-07-28T18:03:20.706Z,11.80
2022-07-28T18:05:24.359Z,7.87
2022-07-28T18:07:27.892Z,10.07
2022-07-28T18:09:31.941Z,6.87
2022-07-28T18:11:36.079Z,6.87
2022-07-28T18:14:03.944Z,12.50
2022-07-28T18:16:10.110Z,9.10
2022-07-28T18:18:13.875Z,8.43
2022-07-28T18:20:17.485Z,8.47
2022-07-28T18:22:21.110Z,7.60
2022-07-28T18:24:24.663Z,10.67
2022-07-28T18:26:28.185Z,7.90
2022-07-28T18:28:32.009Z,8.00
2022-07-28T18:30:36.150Z,7.90
2022-07-28T18:32:41.029Z,8.90
2022-07-28T18:34:45.407Z,8.97
2022-07-28T18:36:48.927Z,14.53
2022-07-28T18:38:54.802Z,9.40
2022-07-28T18:40:58.332Z,9.07
2022-07-28T18:43:02.209Z,7.10
2022-07-28T18:45:06.609Z,8.63
2022-07-28T18:47:10.144Z,8.70
2022-07-28T18:49:15.245Z,9.43
2022-07-28T18:51:19.175Z,10.10
2022-07-28T18:53:23.479Z,9.07
2022-07-28T18:55:27.025Z,9.03
2022-07-28T18:57:30.689Z,6.50
2022-07-28T18:59:34.558Z,7.47
2022-07-28T19:01:38.217Z,7.40
2022-07-28T19:03:42.360Z,8.73
2022-07-28T19:05:47.303Z,7.57
2022-07-28T19:07:51.116Z,9.57
2022-07-28T19:09:55.267Z,9.77
2022-07-28T19:11:58.867Z,8.83
2022-07-28T19:14:02.982Z,8.80
2022-07-28T19:16:06.924Z,8.07
2022-07-28T19:18:12.060Z,14.77
2022-07-28T19:20:16.857Z,6.70
2022-07-28T19:22:22.550Z,8.13
2022-07-28T19:24:26.434Z,8.30
2022-07-28T19:26:30.118Z,10.00
2022-07-28T19:28:33.965Z,9.37
2022-07-28T19:30:37.669Z,13.00
2022-07-28T19:32:42.017Z,13.77
2022-07-28T19:34:45.631Z,15.47
2022-07-28T19:36:49.141Z,11.17
2022-07-28T19:38:54.441Z,11.17
2022-07-28T19:40:57.982Z,8.47
2022-07-28T19:43:01.551Z,9.93
2022-07-28T19:45:05.356Z,7.90
2022-07-28T19:47:08.970Z,12.80
2022-07-28T19:49:17.253Z,7.00
2022-07-28T19:51:21.172Z,8.13
2022-07-28T19:53:25.116Z,8.40
2022-07-28T19:55:37.208Z,9.50
2022-07-28T19:57:42.523Z,7.17
2022-07-28T19:59:46.106Z,8.40
2022-07-28T20:01:50.659Z,6.50
2022-07-28T20:04:03.201Z,8.30
2022-07-28T20:06:09.871Z,8.00
2022-07-28T20:08:13.635Z,8.87
2022-07-28T20:10:17.167Z,6.97
2022-07-28T20:12:22.429Z,8.00
2022-07-28T20:14:26.565Z,7.47
2022-07-28T20:16:30.172Z,7.40
2022-07-28T20:18:33.913Z,8.30
2022-07-28T20:20:37.475Z,6.97
2022-07-28T20:22:41.363Z,8.13
2022-07-28T20:25:03.830Z,8.83
2022-07-28T20:27:27.428Z,10.57
2022-07-28T20:29:49.502Z,6.37
2022-07-28T20:32:11.610Z,7.47
2022-07-28T20:34:33.672Z,9.73
2022-07-28T20:36:56.154Z,7.23
2022-07-28T20:39:42.520Z,7.50
2022-07-28T20:42:00.505Z,6.97
2022-07-28T20:44:29.791Z,6.70
2022-07-28T20:46:52.536Z,10.47
2022-07-28T20:49:14.918Z,8.27
2022-07-28T20:51:37.514Z,7.73
2022-07-28T20:53:59.539Z,8.23
2022-07-28T20:56:21.658Z,8.00
2022-07-28T20:58:43.765Z,11.13
2022-07-28T21:01:07.317Z,10.47
2022-07-28T21:03:29.878Z,11.77
2022-07-28T21:05:52.301Z,12.40
2022-07-28T21:08:16.333Z,9.63
2022-07-28T21:10:40.862Z,9.97
2022-07-28T21:13:03.030Z,9.90
2022-07-28T21:15:25.367Z,9.50
2022-07-28T21:17:49.025Z,9.57
2022-07-28T21:20:11.776Z,11.53
2022-07-28T21:22:34.216Z,9.87
2022-07-28T21:24:56.557Z,12.87
2022-07-28T21:27:18.932Z,12.70
2022-07-28T21:29:40.162Z,12.57
2022-07-28T21:32:05.228Z,10.40
2022-07-28T21:34:29.666Z,11.47
2022-07-28T21:36:52.095Z,11.50
2022-07-28T21:39:14.609Z,10.50
2022-07-28T21:41:37.199Z,14.77
2022-07-28T21:44:03.923Z,12.27
2022-07-28T21:46:26.848Z,11.47
2022-07-28T21:48:48.963Z,10.00
2022-07-28T21:51:20.610Z,16.63
2022-07-28T21:53:44.960Z,15.23
2022-07-28T21:56:08.297Z,11.90
2022-07-28T21:58:30.685Z,12.70
2022-07-28T22:00:52.793Z,12.50
2022-07-28T22:03:15.298Z,10.10
2022-07-28T22:05:37.241Z,12.00
2022-07-28T22:08:00.467Z,9.80
2022-07-28T22:10:23.006Z,13.03
2022-07-28T22:12:44.970Z,10.47
2022-07-28T22:15:07.689Z,10.33
2022-07-28T22:17:29.788Z,9.73
2022-07-28T22:19:52.143Z,9.90
2022-07-28T22:22:14.270Z,9.93
2022-07-28T22:24:37.887Z,10.00
2022-07-28T22:27:00.373Z,10.53
2022-07-28T22:29:23.837Z,11.50
2022-07-28T22:31:46.006Z,10.23
2022-07-28T22:34:08.614Z,8.80
2022-07-28T22:36:31.215Z,9.40
2022-07-28T22:38:55.319Z,10.03
2022-07-28T22:41:18.896Z,19.33
2022-07-28T22:43:40.726Z,8.33
2022-07-28T22:46:03.051Z,9.07
2022-07-28T22:48:25.339Z,8.33
2022-07-28T22:50:47.848Z,12.13
2022-07-28T22:53:10.139Z,8.57
2022-07-28T22:55:32.191Z,8.77
2022-07-28T22:57:55.834Z,9.87
2022-07-28T23:00:20.892Z,8.43
2022-07-28T23:02:43.556Z,9.00
2022-07-28T23:05:06.515Z,9.70
2022-07-28T23:07:51.190Z,8.90
2022-07-28T23:10:11.864Z,8.60
2022-07-28T23:12:34.107Z,9.07
2022-07-28T23:14:57.748Z,12.20
2022-07-28T23:17:19.945Z,9.53
2022-07-28T23:19:42.246Z,8.73
2022-07-28T23:22:04.988Z,9.00
2022-07-28T23:24:27.573Z,10.23
2022-07-28T23:26:50.295Z,8.90
2022-07-28T23:29:12.451Z,10.10
2022-07-28T23:31:36.136Z,9.20
2022-07-28T23:33:58.400Z,9.10
2022-07-28T23:36:26.734Z,10.83
2022-07-28T23:38:49.604Z,9.60
2022-07-28T23:41:15.365Z,9.60
2022-07-28T23:43:37.142Z,9.23
2022-07-28T23:45:59.225Z,11.80
2022-07-28T23:48:22.719Z,9.47
2022-07-28T23:50:44.954Z,9.87
2022-07-28T23:53:06.936Z,12.47
2022-07-28T23:55:29.084Z,8.87
2022-07-28T23:57:51.091Z,9.00
